Terminal Aerodrome Forecast
Issued by NWS Twin Cities, MN

Home | Current Version | Previous Version | Text Only | Print | Product List | Glossary On
Versions: 1 2 3 4 5 6 7 8 9 10 11 12 13 14 15 16 17 18 19 20 21 22 23 24 25 26 27 28 29 30 31 32
000
FTUS43 KMPX 280257 AAB
TAFMSP
TAF AMD
KMSP 280257Z 2803/2906 34004KT P6SM SCT009 OVC013
     FM280500 32004KT 4SM BR OVC015
     FM281100 05004KT 4SM -SHRA BR SCT008 OVC012
     FM281800 18006KT P6SM VCSH OVC025
     FM282000 21006KT P6SM VCSH SCT025 BKN040 PROB30 2820/2824 5SM
      -SHRA BKN025
     FM290000 24007KT P6SM -SHRA OVC025=

USA.gov is the U.S. government's official web portal to all federal, state and local government web resources and services.